Strona główna
METAR-TAF:

METAR-TAF

Lotnisko :

Casement Aerodrome

Dublin, Irlandia

Szerokość geograficzna: 53-18-06N, Długość geograficzna: 6-27-04W, wysokość: 97 m

Aktualna obserwacja pogody

Raport powstał 33 minut temu, godzina 02:00 UTC
Wiatr 2 kt od wschodnio-północny wschód
Temperatura 0°C
Wilgotność 93%
Ciśnienie 994 hPa
Widzialność 10 km lub więcej
Mało chmury na wysokości 1500 ft
Rozproszone chmury na wysokości 2800 ft
Przerywane chmury na wysokości 16000 ft

METAR: EIME 240200Z 06002KT 9999 FEW015 SCT028 BKN160 M00/M01 Q0994

czas: 02:33 (02:33 UTC)


TAF: brakujący

Obserwacja i prognoza pogody dla ponad 4000 lotnisk (raport METAR i TAF).

Dostępne stacje oznaczono żółtymi i czerwonymi punktami na mapie.

Najedź kursorem aby zobaczyć nazwę stacji.

Kliknij aby zobaczyć obserwacje i prognozy pogody.

Aby zmienić mapę: kliknij na zielony przycisk z czarnym krzyżykiem, aby powiększyć; na zielony przycisk z myślnikiem, aby pomniejszyć; na zielone strzałki, aby przejść do map sąsiednich.


METAR-TAF: